Time;durP1;ratioP1;P1;durP2;ratioP2;P2;SDS_P1;SDS_P2;PMS_P1;PMS_P2;Temp;Humidity;BMP_temperature;BMP_pressure;BME280_temperature;BME280_humidity;BME280_pressure;Samples;Min_cycle;Max_cycle;Signal;HPM_P1;HPM_P2
2024/03/25 00:01:11;;;;;;;1.67;1.67;;;;;;;;;;6137752;29;20294;-60
2024/03/25 00:04:16;;;;;;;4.23;1.93;;;;;;;;;;6136939;29;20315;-59
2024/03/25 00:07:17;;;;;;;2.23;2.13;;;;;;;;;;6137300;29;20298;-59
2024/03/25 00:10:21;;;;;;;4.37;2.03;;;;;;;;;;6144154;28;20301;-61
2024/03/25 00:13:22;;;;;;;1.80;1.80;;;;;;;;;;6137132;29;20313;-59
2024/03/25 00:16:25;;;;;;;2.53;1.90;;;;;;;;;;6136922;29;20293;-60
2024/03/25 00:19:28;;;;;;;2.07;1.97;;;;;;;;;;6136666;29;20288;-60
2024/03/25 00:22:31;;;;;;;2.33;2.30;;;;;;;;;;6137095;29;20287;-61
2024/03/25 00:25:33;;;;;;;3.17;1.90;;;;;;;;;;6136318;29;20301;-60
2024/03/25 00:28:37;;;;;;;3.87;1.93;;;;;;;;;;6136260;29;20293;-60
2024/03/25 00:31:39;;;;;;;1.90;1.90;;;;;;;;;;6136395;29;20305;-60
2024/03/25 00:34:43;;;;;;;2.10;2.00;;;;;;;;;;6136047;29;20316;-61
2024/03/25 00:37:45;;;;;;;2.03;1.93;;;;;;;;;;6136443;29;20461;-60
2024/03/25 00:40:48;;;;;;;2.43;2.07;;;;;;;;;;6136214;29;20297;-60
2024/03/25 00:43:49;;;;;;;2.73;1.90;;;;;;;;;;6136151;29;20334;-61
2024/03/25 00:46:52;;;;;;;1.90;1.87;;;;;;;;;;6136248;29;20306;-60
2024/03/25 00:49:55;;;;;;;3.13;2.53;;;;;;;;;;6136062;29;20305;-60
2024/03/25 00:52:58;;;;;;;2.20;2.00;;;;;;;;;;6135310;29;20322;-60
2024/03/25 00:56:00;;;;;;;2.20;2.10;;;;;;;;;;6136029;29;20302;-59
2024/03/25 00:59:03;;;;;;;1.67;1.60;;;;;;;;;;6135877;29;20297;-60
2024/03/25 01:02:05;;;;;;;3.27;2.10;;;;;;;;;;6136279;29;20306;-59
2024/03/25 01:05:10;;;;;;;2.07;1.97;;;;;;;;;;6136194;29;20298;-60
2024/03/25 01:08:13;;;;;;;2.73;1.93;;;;;;;;;;6136301;29;20547;-60
2024/03/25 01:11:15;;;;;;;2.10;1.90;;;;;;;;;;6144664;29;20292;-60
2024/03/25 01:14:18;;;;;;;1.90;1.80;;;;;;;;;;6135951;29;20610;-60
2024/03/25 01:17:20;;;;;;;1.90;1.90;;;;;;;;;;6135930;29;20287;-60
2024/03/25 01:20:24;;;;;;;1.83;1.80;;;;;;;;;;6136107;29;20282;-60
2024/03/25 01:23:26;;;;;;;1.80;1.73;;;;;;;;;;6134963;29;20538;-59
2024/03/25 01:26:29;;;;;;;2.13;1.93;;;;;;;;;;6136216;29;20294;-59
2024/03/25 01:29:31;;;;;;;1.83;1.80;;;;;;;;;;6135627;29;20298;-59
2024/03/25 01:32:33;;;;;;;1.53;1.53;;;;;;;;;;6135908;29;20333;-59
2024/03/25 01:35:37;;;;;;;1.80;1.70;;;;;;;;;;6135452;29;20292;-60
2024/03/25 01:38:40;;;;;;;1.60;1.60;;;;;;;;;;6135171;29;20306;-60
2024/03/25 01:41:41;;;;;;;1.60;1.60;;;;;;;;;;6136392;29;20298;-60
2024/03/25 01:44:44;;;;;;;1.57;1.50;;;;;;;;;;6137842;29;20306;-61
2024/03/25 01:47:47;;;;;;;1.90;1.77;;;;;;;;;;6139955;29;20302;-60
2024/03/25 01:50:51;;;;;;;1.87;1.80;;;;;;;;;;6139957;29;20480;-60
2024/03/25 01:53:54;;;;;;;1.60;1.60;;;;;;;;;;6138990;29;20303;-59
2024/03/25 01:56:57;;;;;;;1.50;1.50;;;;;;;;;;6140385;29;20293;-59
2024/03/25 01:59:59;;;;;;;1.53;1.53;;;;;;;;;;6139812;29;20621;-59
2024/03/25 02:03:04;;;;;;;1.80;1.80;;;;;;;;;;6123874;29;20292;-59
2024/03/25 02:06:13;;;;;;;2.40;2.20;;;;;;;;;;6139985;29;20298;-59
2024/03/25 02:09:16;;;;;;;2.00;1.90;;;;;;;;;;6139150;29;20354;-59
2024/03/25 02:12:19;;;;;;;1.83;1.73;;;;;;;;;;6148014;29;20300;-59
2024/03/25 02:15:20;;;;;;;2.40;1.90;;;;;;;;;;6139118;29;20299;-59
2024/03/25 02:18:24;;;;;;;2.10;2.10;;;;;;;;;;6139142;29;20301;-59
2024/03/25 02:21:27;;;;;;;2.13;1.80;;;;;;;;;;6139568;29;20296;-60
2024/03/25 02:24:31;;;;;;;1.70;1.70;;;;;;;;;;6139133;29;20605;-59
2024/03/25 02:27:35;;;;;;;2.33;1.80;;;;;;;;;;6139454;29;20285;-60
2024/03/25 02:30:38;;;;;;;1.40;1.40;;;;;;;;;;6138656;29;20299;-60
2024/03/25 02:33:42;;;;;;;1.70;1.70;;;;;;;;;;6138768;29;20310;-60
2024/03/25 02:36:45;;;;;;;1.53;1.53;;;;;;;;;;6139045;29;20295;-61
2024/03/25 02:39:46;;;;;;;1.73;1.70;;;;;;;;;;6122654;29;20302;-60
2024/03/25 02:42:51;;;;;;;1.80;1.80;;;;;;;;;;6139023;29;20299;-60
2024/03/25 02:45:53;;;;;;;1.60;1.60;;;;;;;;;;6138660;29;20298;-60
2024/03/25 02:48:56;;;;;;;1.70;1.60;;;;;;;;;;6138431;29;20295;-60
2024/03/25 02:51:58;;;;;;;1.93;1.67;;;;;;;;;;6138186;29;20386;-61
2024/03/25 02:55:01;;;;;;;1.80;1.70;;;;;;;;;;6138185;29;20306;-61
2024/03/25 02:58:04;;;;;;;1.87;1.70;;;;;;;;;;6138197;29;20295;-60
2024/03/25 03:01:07;;;;;;;1.63;1.53;;;;;;;;;;6138854;29;20464;-59
2024/03/25 03:04:10;;;;;;;1.93;1.83;;;;;;;;;;6138025;29;20298;-59
2024/03/25 03:07:11;;;;;;;1.70;1.70;;;;;;;;;;6138217;29;20313;-59
2024/03/25 03:10:15;;;;;;;2.03;1.80;;;;;;;;;;6144590;28;20310;-60
2024/03/25 03:13:19;;;;;;;1.60;1.57;;;;;;;;;;6138443;29;20441;-60
2024/03/25 03:16:21;;;;;;;1.87;1.77;;;;;;;;;;6138547;29;20284;-59
2024/03/25 03:19:24;;;;;;;1.60;1.60;;;;;;;;;;6137538;29;20294;-59
2024/03/25 03:22:29;;;;;;;1.70;1.70;;;;;;;;;;6131130;29;20464;-59
2024/03/25 03:25:32;;;;;;;1.40;1.40;;;;;;;;;;6114217;29;25102;-59
2024/03/25 03:28:36;;;;;;;1.87;1.73;;;;;;;;;;6114093;29;20294;-59
2024/03/25 03:31:38;;;;;;;1.70;1.70;;;;;;;;;;6114273;29;20299;-59
2024/03/25 03:34:40;;;;;;;1.63;1.63;;;;;;;;;;6112997;29;20306;-59
2024/03/25 03:37:42;;;;;;;1.60;1.60;;;;;;;;;;6114218;29;20314;-60
2024/03/25 03:40:47;;;;;;;1.70;1.60;;;;;;;;;;6113584;29;20291;-60
2024/03/25 03:43:51;;;;;;;1.40;1.40;;;;;;;;;;6112177;29;20492;-60
2024/03/25 03:46:53;;;;;;;1.70;1.70;;;;;;;;;;6113326;29;20301;-60
2024/03/25 03:49:57;;;;;;;1.60;1.60;;;;;;;;;;6113069;29;20302;-59
2024/03/25 03:52:59;;;;;;;1.73;1.63;;;;;;;;;;6112264;29;20306;-60
2024/03/25 03:56:05;;;;;;;1.50;1.50;;;;;;;;;;6113514;29;20300;-60
2024/03/25 03:59:09;;;;;;;1.63;1.63;;;;;;;;;;6112571;29;20322;-59
2024/03/25 04:02:11;;;;;;;1.67;1.57;;;;;;;;;;6133433;29;20286;-60
2024/03/25 04:05:14;;;;;;;1.80;1.70;;;;;;;;;;6150177;29;20449;-59
2024/03/25 04:08:17;;;;;;;1.40;1.40;;;;;;;;;;6136968;29;20290;-60
2024/03/25 04:11:19;;;;;;;1.73;1.43;;;;;;;;;;6142542;29;20290;-60
2024/03/25 04:14:23;;;;;;;1.60;1.60;;;;;;;;;;6136380;29;20300;-60
2024/03/25 04:17:25;;;;;;;1.40;1.40;;;;;;;;;;6136768;29;20306;-60
2024/03/25 04:20:28;;;;;;;2.20;1.50;;;;;;;;;;6153258;29;20306;-60
2024/03/25 04:23:31;;;;;;;1.83;1.73;;;;;;;;;;6159690;28;20293;-60
2024/03/25 04:26:33;;;;;;;1.80;1.80;;;;;;;;;;6160239;29;20300;-61
2024/03/25 04:29:37;;;;;;;1.80;1.70;;;;;;;;;;6160137;29;20285;-60
2024/03/25 04:32:39;;;;;;;1.90;1.90;;;;;;;;;;6160593;29;20301;-59
2024/03/25 04:35:42;;;;;;;1.70;1.70;;;;;;;;;;6156550;29;20239;-60
